KLM342 LEMH-LIRN
Flight info
| Callsign | KLM342 |
|---|---|
| Flight time | 1h 28m |
| Altitude | 34000 |
| Route | MORSS M603 BAVON DCT ORKUM DCT ELSAG DCT ALG DCT ROXAN DCT TURMO DCT ROTUN DCT PNZ |
| Aircraft | B738/M-SDE2E3FGHIR/S |
Departure
| Time | 2026-04-26 14:09 |
|---|---|
| Airport | Menorca Airport (LEMH) |
Arrival
| Time | 2026-04-26 15:38 |
|---|---|
| Airport | Naples International Airport (LIRN) |
| Time | Latitude | Longitude | Altitude | Speed | Heading |
|---|---|---|---|---|---|
| 2026-04-26 13:58 | 39.86594 | 4.22352 | 313 ft | 0 kts | 199° |
| 2026-04-26 13:59 | 39.86576 | 4.22343 | 313 ft | 4 kts | 204° |
| 2026-04-26 13:59 | 39.86553 | 4.22322 | 313 ft | 3 kts | 224° |
| 2026-04-26 13:59 | 39.86537 | 4.22289 | 313 ft | 7 kts | 250° |
| 2026-04-26 14:00 | 39.86692 | 4.22198 | 313 ft | 14 kts | 5° |
| 2026-04-26 14:00 | 39.86794 | 4.22216 | 313 ft | 15 kts | 8° |
| 2026-04-26 14:00 | 39.86866 | 4.22231 | 313 ft | 16 kts | 9° |
| 2026-04-26 14:01 | 39.87022 | 4.22263 | 313 ft | 18 kts | 8° |
| 2026-04-26 14:01 | 39.87143 | 4.22285 | 313 ft | 17 kts | 8° |
| 2026-04-26 14:01 | 39.87220 | 4.22299 | 313 ft | 8 kts | 8° |
| 2026-04-26 14:01 | 39.87250 | 4.22305 | 313 ft | 3 kts | 9° |
| 2026-04-26 14:02 | 39.87273 | 4.22310 | 313 ft | 4 kts | 11° |
| 2026-04-26 14:02 | 39.87304 | 4.22318 | 313 ft | 5 kts | 11° |
| 2026-04-26 14:02 | 39.87344 | 4.22329 | 313 ft | 7 kts | 12° |
| 2026-04-26 14:02 | 39.87390 | 4.22341 | 313 ft | 4 kts | 11° |
| 2026-04-26 14:03 | 39.87411 | 4.22335 | 313 ft | 3 kts | 312° |
| 2026-04-26 14:03 | 39.87414 | 4.22329 | 313 ft | 0 kts | 298° |
| 2026-04-26 14:04 | 39.87414 | 4.22328 | 313 ft | 0 kts | 298° |
| 2026-04-26 14:07 | 39.87415 | 4.22326 | 313 ft | 2 kts | 296° |
| 2026-04-26 14:08 | 39.87418 | 4.22293 | 313 ft | 4 kts | 262° |
| 2026-04-26 14:08 | 39.87406 | 4.22234 | 313 ft | 10 kts | 249° |
| 2026-04-26 14:08 | 39.87378 | 4.22146 | 313 ft | 12 kts | 246° |
| 2026-04-26 14:08 | 39.87351 | 4.22096 | 313 ft | 8 kts | 205° |
| 2026-04-26 14:09 | 39.87244 | 4.22069 | 313 ft | 36 kts | 191° |
| 2026-04-26 14:09 | 39.86716 | 4.21961 | 314 ft | 117 kts | 189° |
| 2026-04-26 14:09 | 39.85666 | 4.21759 | 425 ft | 177 kts | 186° |
| 2026-04-26 14:09 | 39.84454 | 4.21499 | 1465 ft | 166 kts | 188° |
| 2026-04-26 14:10 | 39.83353 | 4.21173 | 2230 ft | 173 kts | 192° |
| 2026-04-26 14:10 | 39.82115 | 4.20736 | 1795 ft | 188 kts | 192° |
| 2026-04-26 14:10 | 39.80819 | 4.20475 | 1996 ft | 193 kts | 185° |
| 2026-04-26 14:10 | 39.79427 | 4.20290 | 2572 ft | 210 kts | 184° |
| 2026-04-26 14:11 | 39.76350 | 4.20671 | 3615 ft | 236 kts | 150° |
| 2026-04-26 14:11 | 39.75166 | 4.22116 | 4150 ft | 240 kts | 124° |
| 2026-04-26 14:11 | 39.74657 | 4.24167 | 4678 ft | 241 kts | 94° |
| 2026-04-26 14:12 | 39.75046 | 4.26276 | 5395 ft | 247 kts | 65° |
| 2026-04-26 14:12 | 39.75938 | 4.28245 | 6047 ft | 260 kts | 59° |
| 2026-04-26 14:12 | 39.76952 | 4.30227 | 6141 ft | 266 kts | 55° |
| 2026-04-26 14:12 | 39.78154 | 4.32059 | 6498 ft | 268 kts | 47° |
| 2026-04-26 14:13 | 39.81171 | 4.34983 | 7489 ft | 274 kts | 29° |
| 2026-04-26 14:13 | 39.82933 | 4.35956 | 7988 ft | 277 kts | 21° |
| 2026-04-26 14:13 | 39.84604 | 4.37200 | 8451 ft | 278 kts | 40° |
| 2026-04-26 14:14 | 39.85893 | 4.39085 | 8999 ft | 281 kts | 53° |
| 2026-04-26 14:14 | 39.86900 | 4.41281 | 9499 ft | 283 kts | 63° |
| 2026-04-26 14:14 | 39.87722 | 4.43577 | 10051 ft | 284 kts | 65° |
| 2026-04-26 14:14 | 39.88532 | 4.45939 | 10606 ft | 288 kts | 65° |
| 2026-04-26 14:15 | 39.89355 | 4.48328 | 11093 ft | 289 kts | 65° |
| 2026-04-26 14:15 | 39.90181 | 4.50723 | 11589 ft | 291 kts | 65° |
| 2026-04-26 14:15 | 39.91013 | 4.53135 | 12085 ft | 293 kts | 65° |
| 2026-04-26 14:15 | 39.91851 | 4.55566 | 12580 ft | 295 kts | 65° |
| 2026-04-26 14:16 | 39.92695 | 4.58016 | 13077 ft | 297 kts | 65° |
| 2026-04-26 14:16 | 39.93544 | 4.60483 | 13578 ft | 302 kts | 65° |
| 2026-04-26 14:16 | 39.94428 | 4.63052 | 14100 ft | 319 kts | 65° |
| 2026-04-26 14:16 | 39.95359 | 4.65762 | 14622 ft | 336 kts | 65° |
| 2026-04-26 14:17 | 39.96198 | 4.68693 | 15119 ft | 354 kts | 74° |
| 2026-04-26 14:17 | 39.96780 | 4.71883 | 15668 ft | 370 kts | 76° |
| 2026-04-26 14:17 | 39.97405 | 4.75140 | 16194 ft | 380 kts | 75° |
| 2026-04-26 14:17 | 39.98106 | 4.78501 | 16694 ft | 387 kts | 73° |
| 2026-04-26 14:18 | 39.98891 | 4.81875 | 17189 ft | 390 kts | 73° |
| 2026-04-26 14:18 | 39.99676 | 4.85272 | 17684 ft | 392 kts | 73° |
| 2026-04-26 14:18 | 40.00465 | 4.88699 | 18177 ft | 394 kts | 73° |
| 2026-04-26 14:18 | 40.01255 | 4.92141 | 18676 ft | 398 kts | 73° |
| 2026-04-26 14:19 | 40.02051 | 4.95614 | 19169 ft | 401 kts | 73° |
| 2026-04-26 14:19 | 40.02852 | 4.99117 | 19665 ft | 404 kts | 73° |
| 2026-04-26 14:19 | 40.03658 | 5.02648 | 20160 ft | 407 kts | 73° |
| 2026-04-26 14:19 | 40.04467 | 5.06197 | 20654 ft | 410 kts | 73° |
| 2026-04-26 14:20 | 40.05282 | 5.09780 | 21151 ft | 413 kts | 73° |
| 2026-04-26 14:20 | 40.06103 | 5.13390 | 21648 ft | 417 kts | 73° |
| 2026-04-26 14:20 | 40.06929 | 5.17033 | 22143 ft | 419 kts | 73° |
| 2026-04-26 14:20 | 40.07759 | 5.20700 | 22640 ft | 423 kts | 73° |
| 2026-04-26 14:21 | 40.08595 | 5.24392 | 23144 ft | 425 kts | 73° |
| 2026-04-26 14:21 | 40.09423 | 5.28062 | 23632 ft | 428 kts | 73° |
| 2026-04-26 14:21 | 40.10267 | 5.31810 | 24130 ft | 431 kts | 73° |
| 2026-04-26 14:21 | 40.11114 | 5.35572 | 24620 ft | 433 kts | 73° |
| 2026-04-26 14:22 | 40.11965 | 5.39364 | 25111 ft | 435 kts | 73° |
| 2026-04-26 14:22 | 40.12819 | 5.43170 | 25603 ft | 437 kts | 73° |
| 2026-04-26 14:22 | 40.13671 | 5.46979 | 26093 ft | 437 kts | 73° |
| 2026-04-26 14:22 | 40.14524 | 5.50795 | 26581 ft | 438 kts | 73° |
| 2026-04-26 14:23 | 40.15376 | 5.54613 | 27066 ft | 438 kts | 73° |
| 2026-04-26 14:23 | 40.16226 | 5.58432 | 27549 ft | 438 kts | 73° |
| 2026-04-26 14:23 | 40.17075 | 5.62251 | 28027 ft | 437 kts | 73° |
| 2026-04-26 14:23 | 40.17922 | 5.66066 | 28514 ft | 436 kts | 73° |
| 2026-04-26 14:24 | 40.18766 | 5.69876 | 28999 ft | 435 kts | 73° |
| 2026-04-26 14:24 | 40.19603 | 5.73665 | 29481 ft | 433 kts | 73° |
| 2026-04-26 14:24 | 40.20437 | 5.77441 | 29967 ft | 431 kts | 73° |
| 2026-04-26 14:24 | 40.21260 | 5.81175 | 30292 ft | 434 kts | 73° |
| 2026-04-26 14:25 | 40.22099 | 5.84986 | 30539 ft | 438 kts | 73° |
| 2026-04-26 14:25 | 40.22942 | 5.88827 | 30805 ft | 440 kts | 73° |
| 2026-04-26 14:25 | 40.23788 | 5.92685 | 31047 ft | 440 kts | 73° |
| 2026-04-26 14:25 | 40.24631 | 5.96540 | 31289 ft | 440 kts | 73° |
| 2026-04-26 14:26 | 40.25472 | 6.00385 | 31534 ft | 439 kts | 73° |
| 2026-04-26 14:26 | 40.26311 | 6.04235 | 31778 ft | 439 kts | 74° |
| 2026-04-26 14:26 | 40.27041 | 6.07606 | 31990 ft | 438 kts | 74° |
| 2026-04-26 14:26 | 40.27747 | 6.10882 | 32200 ft | 438 kts | 74° |
| 2026-04-26 14:27 | 40.28264 | 6.13284 | 32352 ft | 438 kts | 74° |
| 2026-04-26 14:27 | 40.29088 | 6.17117 | 32596 ft | 437 kts | 74° |
| 2026-04-26 14:27 | 40.29910 | 6.20953 | 32841 ft | 437 kts | 74° |
| 2026-04-26 14:27 | 40.30733 | 6.24796 | 33086 ft | 437 kts | 74° |
| 2026-04-26 14:28 | 40.31551 | 6.28626 | 33331 ft | 436 kts | 74° |
| 2026-04-26 14:28 | 40.32367 | 6.32449 | 33574 ft | 436 kts | 74° |
| 2026-04-26 14:28 | 40.33181 | 6.36272 | 33818 ft | 435 kts | 74° |
| 2026-04-26 14:28 | 40.33994 | 6.40094 | 34062 ft | 435 kts | 74° |
| 2026-04-26 14:29 | 40.34807 | 6.43926 | 34148 ft | 438 kts | 74° |
| 2026-04-26 14:29 | 40.36456 | 6.51719 | 34149 ft | 447 kts | 74° |
| 2026-04-26 14:30 | 40.37835 | 6.58257 | 34149 ft | 447 kts | 74° |
| 2026-04-26 14:30 | 40.39756 | 6.67403 | 34147 ft | 447 kts | 74° |
| 2026-04-26 14:31 | 40.41403 | 6.75274 | 34147 ft | 448 kts | 74° |
| 2026-04-26 14:31 | 40.43050 | 6.83171 | 34146 ft | 448 kts | 74° |
| 2026-04-26 14:32 | 40.44692 | 6.91075 | 34146 ft | 449 kts | 74° |
| 2026-04-26 14:32 | 40.46330 | 6.98994 | 34144 ft | 449 kts | 74° |
| 2026-04-26 14:33 | 40.47962 | 7.06909 | 34144 ft | 449 kts | 74° |
| 2026-04-26 14:33 | 40.49580 | 7.14791 | 34143 ft | 449 kts | 74° |
| 2026-04-26 14:34 | 40.51202 | 7.22719 | 34144 ft | 449 kts | 74° |
| 2026-04-26 14:34 | 40.52818 | 7.30648 | 34144 ft | 449 kts | 74° |
| 2026-04-26 14:35 | 40.54432 | 7.38599 | 34143 ft | 449 kts | 74° |
| 2026-04-26 14:35 | 40.56039 | 7.46543 | 34142 ft | 449 kts | 74° |
| 2026-04-26 14:36 | 40.57037 | 7.54583 | 34141 ft | 450 kts | 86° |
| 2026-04-26 14:36 | 40.57648 | 7.62829 | 34140 ft | 450 kts | 83° |
| 2026-04-26 14:37 | 40.58355 | 7.70963 | 34139 ft | 450 kts | 83° |
| 2026-04-26 14:37 | 40.59053 | 7.79141 | 34140 ft | 450 kts | 83° |
| 2026-04-26 14:38 | 40.59745 | 7.87320 | 34067 ft | 450 kts | 83° |
| 2026-04-26 14:38 | 40.60089 | 7.91412 | 33960 ft | 450 kts | 83° |
| 2026-04-26 14:38 | 40.60431 | 7.95504 | 33861 ft | 449 kts | 83° |
| 2026-04-26 14:39 | 40.61113 | 8.03689 | 33663 ft | 450 kts | 83° |
| 2026-04-26 14:39 | 40.61791 | 8.11893 | 33466 ft | 451 kts | 83° |
| 2026-04-26 14:40 | 40.62351 | 8.18711 | 33300 ft | 450 kts | 83° |
| 2026-04-26 14:40 | 40.63018 | 8.26916 | 33140 ft | 450 kts | 83° |
| 2026-04-26 14:41 | 40.63676 | 8.35117 | 33141 ft | 451 kts | 83° |
| 2026-04-26 14:41 | 40.64331 | 8.43348 | 33140 ft | 451 kts | 83° |
| 2026-04-26 14:42 | 40.64975 | 8.51522 | 33140 ft | 451 kts | 83° |
| 2026-04-26 14:42 | 40.65618 | 8.59745 | 33140 ft | 451 kts | 83° |
| 2026-04-26 14:43 | 40.66256 | 8.67989 | 33140 ft | 451 kts | 83° |
| 2026-04-26 14:43 | 40.66887 | 8.76224 | 33140 ft | 451 kts | 83° |
| 2026-04-26 14:44 | 40.67508 | 8.84403 | 33141 ft | 451 kts | 84° |
| 2026-04-26 14:44 | 40.68127 | 8.92632 | 33141 ft | 451 kts | 84° |
| 2026-04-26 14:45 | 40.68741 | 9.00880 | 33143 ft | 452 kts | 84° |
| 2026-04-26 14:45 | 40.69349 | 9.09115 | 33142 ft | 452 kts | 84° |
| 2026-04-26 14:46 | 40.69950 | 9.17347 | 33141 ft | 451 kts | 84° |
| 2026-04-26 14:46 | 40.70545 | 9.25583 | 33142 ft | 451 kts | 84° |
| 2026-04-26 14:47 | 40.71135 | 9.33812 | 33140 ft | 451 kts | 84° |
| 2026-04-26 14:47 | 40.71718 | 9.42040 | 33141 ft | 451 kts | 84° |
| 2026-04-26 14:48 | 40.72292 | 9.50226 | 33141 ft | 451 kts | 84° |
| 2026-04-26 14:48 | 40.72864 | 9.58465 | 33141 ft | 451 kts | 84° |
| 2026-04-26 14:49 | 40.73431 | 9.66714 | 33142 ft | 451 kts | 84° |
| 2026-04-26 14:49 | 40.73990 | 9.74942 | 33142 ft | 450 kts | 84° |
| 2026-04-26 14:50 | 40.74539 | 9.83114 | 33141 ft | 450 kts | 84° |
| 2026-04-26 14:50 | 40.75087 | 9.91347 | 33141 ft | 450 kts | 84° |
| 2026-04-26 14:51 | 40.75629 | 9.99580 | 33143 ft | 450 kts | 84° |
| 2026-04-26 14:51 | 40.76165 | 10.07815 | 33142 ft | 450 kts | 84° |
| 2026-04-26 14:52 | 40.76695 | 10.16047 | 33142 ft | 451 kts | 85° |
| 2026-04-26 14:52 | 40.77216 | 10.24229 | 33144 ft | 450 kts | 85° |
| 2026-04-26 14:53 | 40.77735 | 10.32464 | 33144 ft | 450 kts | 85° |
| 2026-04-26 14:53 | 40.78247 | 10.40704 | 33146 ft | 451 kts | 85° |
| 2026-04-26 14:54 | 40.78754 | 10.48949 | 33146 ft | 451 kts | 85° |
| 2026-04-26 14:54 | 40.79256 | 10.57199 | 33150 ft | 451 kts | 85° |
| 2026-04-26 14:55 | 40.79752 | 10.65470 | 33151 ft | 452 kts | 85° |
| 2026-04-26 14:55 | 40.80243 | 10.73738 | 33153 ft | 452 kts | 85° |
| 2026-04-26 14:56 | 40.80727 | 10.81998 | 33154 ft | 452 kts | 85° |
| 2026-04-26 14:56 | 40.81204 | 10.90233 | 33156 ft | 452 kts | 85° |
| 2026-04-26 14:57 | 40.81677 | 10.98517 | 33157 ft | 452 kts | 85° |
| 2026-04-26 14:57 | 40.82144 | 11.06788 | 33140 ft | 452 kts | 85° |
| 2026-04-26 14:58 | 40.82606 | 11.15066 | 33142 ft | 452 kts | 85° |
| 2026-04-26 14:58 | 40.83059 | 11.23339 | 33161 ft | 452 kts | 85° |
| 2026-04-26 14:59 | 40.83499 | 11.31618 | 33159 ft | 452 kts | 85° |
| 2026-04-26 14:59 | 40.83930 | 11.39840 | 33159 ft | 452 kts | 85° |
| 2026-04-26 15:00 | 40.84359 | 11.48131 | 33157 ft | 452 kts | 86° |
| 2026-04-26 15:00 | 40.84781 | 11.56407 | 33157 ft | 452 kts | 86° |
| 2026-04-26 15:01 | 40.85198 | 11.64687 | 33157 ft | 452 kts | 86° |
| 2026-04-26 15:01 | 40.85609 | 11.72973 | 33154 ft | 452 kts | 86° |
| 2026-04-26 15:02 | 40.86013 | 11.81261 | 33154 ft | 452 kts | 86° |
| 2026-04-26 15:02 | 40.86415 | 11.89501 | 33153 ft | 452 kts | 86° |
| 2026-04-26 15:03 | 40.86814 | 11.97786 | 33152 ft | 452 kts | 86° |
| 2026-04-26 15:03 | 40.87207 | 12.06082 | 33154 ft | 453 kts | 86° |
| 2026-04-26 15:04 | 40.87595 | 12.14387 | 33143 ft | 453 kts | 86° |
| 2026-04-26 15:04 | 40.87977 | 12.22696 | 33144 ft | 453 kts | 86° |
| 2026-04-26 15:05 | 40.88354 | 12.31003 | 33143 ft | 453 kts | 86° |
| 2026-04-26 15:05 | 40.88736 | 12.39277 | 33144 ft | 454 kts | 86° |
| 2026-04-26 15:06 | 40.89114 | 12.47624 | 32662 ft | 455 kts | 86° |
| 2026-04-26 15:06 | 40.89301 | 12.51787 | 32161 ft | 455 kts | 86° |
| 2026-04-26 15:06 | 40.89487 | 12.55952 | 31598 ft | 453 kts | 86° |
| 2026-04-26 15:06 | 40.89669 | 12.60091 | 31031 ft | 448 kts | 86° |
| 2026-04-26 15:07 | 40.90025 | 12.68243 | 30018 ft | 440 kts | 86° |
| 2026-04-26 15:07 | 40.90198 | 12.72260 | 29511 ft | 436 kts | 86° |
| 2026-04-26 15:07 | 40.90369 | 12.76250 | 29003 ft | 433 kts | 86° |
| 2026-04-26 15:08 | 40.90534 | 12.80153 | 28500 ft | 428 kts | 86° |
| 2026-04-26 15:08 | 40.90698 | 12.84050 | 27987 ft | 421 kts | 86° |
| 2026-04-26 15:08 | 40.90858 | 12.87894 | 27473 ft | 415 kts | 86° |
| 2026-04-26 15:08 | 40.91015 | 12.91690 | 26967 ft | 413 kts | 86° |
| 2026-04-26 15:09 | 40.91054 | 12.95489 | 26424 ft | 412 kts | 94° |
| 2026-04-26 15:09 | 40.90511 | 12.99186 | 25934 ft | 408 kts | 105° |
| 2026-04-26 15:09 | 40.89700 | 13.02773 | 25450 ft | 406 kts | 106° |
| 2026-04-26 15:09 | 40.88912 | 13.06353 | 24939 ft | 404 kts | 105° |
| 2026-04-26 15:10 | 40.88147 | 13.09914 | 24432 ft | 402 kts | 105° |
| 2026-04-26 15:10 | 40.87643 | 13.12261 | 24095 ft | 400 kts | 105° |
| 2026-04-26 15:10 | 40.86632 | 13.16962 | 23413 ft | 395 kts | 105° |
| 2026-04-26 15:10 | 40.85882 | 13.20443 | 22904 ft | 392 kts | 105° |
| 2026-04-26 15:11 | 40.85134 | 13.23903 | 22396 ft | 390 kts | 105° |
| 2026-04-26 15:11 | 40.84394 | 13.27329 | 21888 ft | 387 kts | 105° |
| 2026-04-26 15:11 | 40.83658 | 13.30728 | 21379 ft | 384 kts | 105° |
| 2026-04-26 15:11 | 40.82934 | 13.34062 | 20876 ft | 381 kts | 105° |
| 2026-04-26 15:12 | 40.82205 | 13.37412 | 20368 ft | 378 kts | 105° |
| 2026-04-26 15:12 | 40.81479 | 13.40745 | 19857 ft | 376 kts | 105° |
| 2026-04-26 15:12 | 40.80760 | 13.44037 | 19345 ft | 370 kts | 105° |
| 2026-04-26 15:12 | 40.80053 | 13.47272 | 18810 ft | 364 kts | 105° |
| 2026-04-26 15:13 | 40.79355 | 13.50460 | 18274 ft | 359 kts | 105° |
| 2026-04-26 15:13 | 40.78665 | 13.53608 | 17732 ft | 354 kts | 105° |
| 2026-04-26 15:13 | 40.77983 | 13.56715 | 17198 ft | 351 kts | 106° |
| 2026-04-26 15:13 | 40.77303 | 13.59809 | 16666 ft | 349 kts | 106° |
| 2026-04-26 15:14 | 40.76628 | 13.62875 | 16133 ft | 347 kts | 106° |
| 2026-04-26 15:14 | 40.75959 | 13.65909 | 15602 ft | 343 kts | 106° |
| 2026-04-26 15:14 | 40.75310 | 13.68874 | 15074 ft | 339 kts | 105° |
| 2026-04-26 15:14 | 40.75113 | 13.71939 | 14507 ft | 335 kts | 84° |
| 2026-04-26 15:15 | 40.75726 | 13.74884 | 13996 ft | 331 kts | 66° |
| 2026-04-26 15:15 | 40.76851 | 13.77489 | 13492 ft | 323 kts | 56° |
| 2026-04-26 15:15 | 40.78079 | 13.79935 | 13025 ft | 315 kts | 56° |
| 2026-04-26 15:15 | 40.79249 | 13.82345 | 12585 ft | 308 kts | 57° |
| 2026-04-26 15:16 | 40.80374 | 13.84709 | 12181 ft | 301 kts | 57° |
| 2026-04-26 15:16 | 40.81473 | 13.87026 | 11773 ft | 295 kts | 57° |
| 2026-04-26 15:16 | 40.82551 | 13.89302 | 11364 ft | 290 kts | 57° |
| 2026-04-26 15:16 | 40.83610 | 13.91540 | 10948 ft | 283 kts | 57° |
| 2026-04-26 15:17 | 40.84636 | 13.93721 | 10534 ft | 276 kts | 58° |
| 2026-04-26 15:17 | 40.85289 | 13.95151 | 10261 ft | 273 kts | 58° |
| 2026-04-26 15:17 | 40.86579 | 13.97992 | 9711 ft | 266 kts | 58° |
| 2026-04-26 15:17 | 40.87525 | 14.00073 | 9303 ft | 263 kts | 58° |
| 2026-04-26 15:18 | 40.88464 | 14.02141 | 8906 ft | 262 kts | 58° |
| 2026-04-26 15:18 | 40.89387 | 14.04173 | 8513 ft | 261 kts | 58° |
| 2026-04-26 15:18 | 40.90316 | 14.06222 | 8197 ft | 258 kts | 58° |
| 2026-04-26 15:18 | 40.91241 | 14.08261 | 8171 ft | 259 kts | 58° |
| 2026-04-26 15:19 | 40.92167 | 14.10306 | 8163 ft | 259 kts | 58° |
| 2026-04-26 15:19 | 40.93095 | 14.12353 | 8160 ft | 259 kts | 58° |
| 2026-04-26 15:19 | 40.94021 | 14.14400 | 8159 ft | 259 kts | 58° |
| 2026-04-26 15:19 | 40.94947 | 14.16448 | 8159 ft | 259 kts | 58° |
| 2026-04-26 15:20 | 40.95873 | 14.18497 | 8155 ft | 259 kts | 58° |
| 2026-04-26 15:20 | 40.96798 | 14.20546 | 8153 ft | 259 kts | 58° |
| 2026-04-26 15:20 | 40.97722 | 14.22594 | 8152 ft | 259 kts | 58° |
| 2026-04-26 15:20 | 40.98647 | 14.24645 | 8151 ft | 259 kts | 58° |
| 2026-04-26 15:21 | 40.99570 | 14.26693 | 8149 ft | 259 kts | 58° |
| 2026-04-26 15:21 | 41.00493 | 14.28742 | 8150 ft | 259 kts | 58° |
| 2026-04-26 15:21 | 41.01409 | 14.30770 | 8150 ft | 259 kts | 58° |
| 2026-04-26 15:21 | 41.02334 | 14.32818 | 8150 ft | 259 kts | 58° |
| 2026-04-26 15:22 | 41.03258 | 14.34866 | 8150 ft | 259 kts | 58° |
| 2026-04-26 15:22 | 41.04184 | 14.36917 | 8146 ft | 259 kts | 58° |
| 2026-04-26 15:22 | 41.05107 | 14.38965 | 8142 ft | 259 kts | 58° |
| 2026-04-26 15:22 | 41.06029 | 14.41012 | 8145 ft | 259 kts | 58° |
| 2026-04-26 15:23 | 41.06952 | 14.43063 | 8141 ft | 259 kts | 58° |
| 2026-04-26 15:23 | 41.07889 | 14.45097 | 8138 ft | 259 kts | 57° |
| 2026-04-26 15:23 | 41.08850 | 14.47116 | 8139 ft | 259 kts | 57° |
| 2026-04-26 15:23 | 41.09810 | 14.49136 | 8066 ft | 257 kts | 57° |
| 2026-04-26 15:24 | 41.10747 | 14.51113 | 7862 ft | 249 kts | 57° |
| 2026-04-26 15:24 | 41.11660 | 14.53039 | 7681 ft | 245 kts | 57° |
| 2026-04-26 15:24 | 41.12566 | 14.54954 | 7508 ft | 245 kts | 57° |
| 2026-04-26 15:24 | 41.13473 | 14.56867 | 7339 ft | 245 kts | 57° |
| 2026-04-26 15:25 | 41.14375 | 14.58778 | 7168 ft | 244 kts | 57° |
| 2026-04-26 15:25 | 41.14964 | 14.60038 | 7148 ft | 243 kts | 57° |
| 2026-04-26 15:25 | 41.16127 | 14.62545 | 7130 ft | 233 kts | 57° |
| 2026-04-26 15:25 | 41.16965 | 14.64351 | 7175 ft | 229 kts | 57° |
| 2026-04-26 15:26 | 41.17800 | 14.66153 | 7155 ft | 228 kts | 57° |
| 2026-04-26 15:26 | 41.18632 | 14.67950 | 7149 ft | 228 kts | 57° |
| 2026-04-26 15:26 | 41.19464 | 14.69746 | 7152 ft | 229 kts | 57° |
| 2026-04-26 15:26 | 41.20241 | 14.71551 | 7130 ft | 225 kts | 66° |
| 2026-04-26 15:27 | 41.20375 | 14.73574 | 7126 ft | 217 kts | 98° |
| 2026-04-26 15:27 | 41.19711 | 14.75281 | 7098 ft | 207 kts | 127° |
| 2026-04-26 15:27 | 41.18701 | 14.76623 | 7050 ft | 205 kts | 138° |
| 2026-04-26 15:27 | 41.17556 | 14.77752 | 7026 ft | 205 kts | 146° |
| 2026-04-26 15:28 | 41.16753 | 14.78417 | 7009 ft | 206 kts | 148° |
| 2026-04-26 15:28 | 41.15529 | 14.79394 | 7002 ft | 205 kts | 148° |
| 2026-04-26 15:28 | 41.14231 | 14.80153 | 6966 ft | 206 kts | 170° |
| 2026-04-26 15:28 | 41.12851 | 14.79789 | 7005 ft | 206 kts | 208° |
| 2026-04-26 15:29 | 41.11792 | 14.78532 | 7037 ft | 205 kts | 229° |
| 2026-04-26 15:29 | 41.10958 | 14.77011 | 7021 ft | 203 kts | 238° |
| 2026-04-26 15:29 | 41.09523 | 14.73788 | 7015 ft | 203 kts | 240° |
| 2026-04-26 15:30 | 41.08053 | 14.70590 | 7007 ft | 203 kts | 239° |
| 2026-04-26 15:30 | 41.07311 | 14.68996 | 6994 ft | 203 kts | 239° |
| 2026-04-26 15:30 | 41.06568 | 14.67404 | 6995 ft | 203 kts | 239° |
| 2026-04-26 15:31 | 41.05825 | 14.65811 | 6992 ft | 203 kts | 239° |
| 2026-04-26 15:31 | 41.04348 | 14.62643 | 6736 ft | 203 kts | 239° |
| 2026-04-26 15:31 | 41.03610 | 14.61062 | 6523 ft | 200 kts | 239° |
| 2026-04-26 15:32 | 41.02390 | 14.58452 | 6268 ft | 200 kts | 239° |
| 2026-04-26 15:32 | 41.01420 | 14.56379 | 5998 ft | 199 kts | 239° |
| 2026-04-26 15:32 | 41.00694 | 14.54822 | 5800 ft | 199 kts | 239° |
| 2026-04-26 15:33 | 40.99967 | 14.53266 | 5599 ft | 198 kts | 239° |
| 2026-04-26 15:33 | 40.99245 | 14.51722 | 5387 ft | 197 kts | 239° |
| 2026-04-26 15:33 | 40.98520 | 14.50175 | 4960 ft | 195 kts | 239° |
| 2026-04-26 15:33 | 40.97821 | 14.48680 | 4500 ft | 186 kts | 239° |
| 2026-04-26 15:34 | 40.97154 | 14.47258 | 4019 ft | 179 kts | 239° |
| 2026-04-26 15:34 | 40.96507 | 14.45877 | 3528 ft | 174 kts | 240° |
| 2026-04-26 15:34 | 40.95882 | 14.44546 | 3049 ft | 170 kts | 240° |
| 2026-04-26 15:34 | 40.95267 | 14.43234 | 2664 ft | 163 kts | 239° |
| 2026-04-26 15:35 | 40.94680 | 14.41980 | 2468 ft | 160 kts | 239° |
| 2026-04-26 15:35 | 40.94091 | 14.40726 | 2295 ft | 160 kts | 239° |
| 2026-04-26 15:35 | 40.93505 | 14.39478 | 2080 ft | 160 kts | 238° |
| 2026-04-26 15:35 | 40.92918 | 14.38230 | 1862 ft | 159 kts | 238° |
| 2026-04-26 15:36 | 40.92341 | 14.37009 | 1683 ft | 156 kts | 239° |
| 2026-04-26 15:36 | 40.91769 | 14.35797 | 1415 ft | 153 kts | 239° |
| 2026-04-26 15:36 | 40.91223 | 14.34639 | 1159 ft | 145 kts | 239° |
| 2026-04-26 15:36 | 40.90695 | 14.33518 | 935 ft | 142 kts | 239° |
| 2026-04-26 15:37 | 40.90169 | 14.32399 | 762 ft | 144 kts | 239° |
| 2026-04-26 15:37 | 40.89640 | 14.31276 | 539 ft | 144 kts | 239° |
| 2026-04-26 15:37 | 40.89116 | 14.30165 | 336 ft | 141 kts | 239° |
| 2026-04-26 15:37 | 40.88652 | 14.29181 | 306 ft | 89 kts | 239° |
| 2026-04-26 15:38 | 40.88456 | 14.28770 | 306 ft | 38 kts | 238° |
| 2026-04-26 15:38 | 40.88342 | 14.28535 | 306 ft | 25 kts | 227° |
| 2026-04-26 15:38 | 40.88238 | 14.28438 | 306 ft | 14 kts | 210° |
| 2026-04-26 15:38 | 40.88179 | 14.28394 | 306 ft | 8 kts | 208° |
| 2026-04-26 15:39 | 40.88121 | 14.28351 | 306 ft | 11 kts | 216° |
| 2026-04-26 15:39 | 40.88072 | 14.28269 | 306 ft | 12 kts | 242° |
| 2026-04-26 15:39 | 40.88050 | 14.28216 | 306 ft | 7 kts | 240° |
| 2026-04-26 15:39 | 40.88029 | 14.28169 | 306 ft | 10 kts | 239° |
| 2026-04-26 15:40 | 40.87974 | 14.28132 | 306 ft | 6 kts | 165° |
| 2026-04-26 15:40 | 40.87936 | 14.28165 | 306 ft | 4 kts | 137° |
| 2026-04-26 15:40 | 40.87918 | 14.28183 | 306 ft | 2 kts | 151° |
| 2026-04-26 15:40 | 40.87912 | 14.28186 | 306 ft | 0 kts | 159° |
| 2026-04-26 15:41 | 40.87910 | 14.28187 | 306 ft | 1 kts | 157° |
| 2026-04-26 15:41 | 40.87897 | 14.28195 | 306 ft | 3 kts | 158° |
| 2026-04-26 15:41 | 40.87884 | 14.28201 | 306 ft | 0 kts | 159° |
| 2026-04-26 15:42 | 40.87880 | 14.28204 | 306 ft | 0 kts | 159° |